createdAt,value
2023-01-31T00:01:09.796Z,2.43
2023-01-31T00:03:37.699Z,2.67
2023-01-31T00:06:13.260Z,2.10
2023-01-31T00:08:40.240Z,2.07
2023-01-31T00:11:08.667Z,3.00
2023-01-31T00:13:36.387Z,1.97
2023-01-31T00:16:03.831Z,2.43
2023-01-31T00:18:31.240Z,2.43
2023-01-31T00:20:58.169Z,2.23
2023-01-31T00:23:25.144Z,2.23
2023-01-31T00:25:52.152Z,2.53
2023-01-31T00:28:20.564Z,2.40
2023-01-31T00:30:47.469Z,2.37
2023-01-31T00:33:14.488Z,2.80
2023-01-31T00:35:41.764Z,2.13
2023-01-31T00:38:08.853Z,2.50
2023-01-31T00:40:36.369Z,1.97
2023-01-31T00:43:03.514Z,2.23
2023-01-31T00:45:31.856Z,1.93
2023-01-31T00:47:58.803Z,2.20
2023-01-31T00:50:25.769Z,2.20
2023-01-31T00:52:52.778Z,1.93
2023-01-31T00:55:19.890Z,3.13
2023-01-31T00:57:46.970Z,1.77
2023-01-31T01:00:15.172Z,2.60
2023-01-31T01:02:43.535Z,2.30
2023-01-31T01:05:10.577Z,2.30
2023-01-31T01:07:37.587Z,1.90
2023-01-31T01:10:05.554Z,1.77
2023-01-31T01:12:32.486Z,1.97
2023-01-31T01:14:59.472Z,1.80
2023-01-31T01:17:26.540Z,2.30
2023-01-31T01:19:54.873Z,3.07
2023-01-31T01:59:17.012Z,2.07
2023-01-31T02:01:44.774Z,3.17
2023-01-31T02:04:17.559Z,2.80
2023-01-31T02:06:45.516Z,2.53
2023-01-31T02:09:19.633Z,2.90
2023-01-31T02:11:46.573Z,2.60
2023-01-31T02:14:15.427Z,2.53
2023-01-31T02:16:42.410Z,2.43
2023-01-31T02:19:19.890Z,2.20
2023-01-31T02:22:11.954Z,2.20
2023-01-31T02:25:21.026Z,3.63
2023-01-31T02:28:20.892Z,2.83
2023-01-31T02:31:07.170Z,3.03
2023-01-31T02:33:41.117Z,2.97
2023-01-31T02:36:19.456Z,3.13
2023-01-31T02:38:58.897Z,2.40
2023-01-31T02:41:33.279Z,2.60
2023-01-31T02:44:27.845Z,2.60
2023-01-31T02:47:01.375Z,2.93
2023-01-31T02:49:39.385Z,2.77
2023-01-31T02:52:16.829Z,2.37
2023-01-31T02:55:10.395Z,2.77
2023-01-31T02:57:38.506Z,3.20
2023-01-31T03:00:08.159Z,2.10
2023-01-31T03:02:35.398Z,2.30
2023-01-31T03:05:04.153Z,2.73
2023-01-31T03:07:34.010Z,2.73
2023-01-31T03:10:24.042Z,3.03
2023-01-31T03:13:02.603Z,3.13
2023-01-31T03:16:06.323Z,2.40
2023-01-31T03:18:41.313Z,2.33
2023-01-31T03:21:12.649Z,2.50
2023-01-31T03:23:41.098Z,2.97
2023-01-31T03:26:09.570Z,3.87
2023-01-31T03:28:42.168Z,2.37
2023-01-31T03:31:14.398Z,2.73
2023-01-31T03:33:45.915Z,2.90
2023-01-31T03:36:24.596Z,3.03
2023-01-31T03:38:58.830Z,2.40
2023-01-31T03:41:30.859Z,3.20
2023-01-31T03:44:03.652Z,2.93
2023-01-31T03:46:36.171Z,2.67
2023-01-31T03:49:08.882Z,2.70
2023-01-31T03:51:48.911Z,2.40
2023-01-31T03:54:20.273Z,2.63
2023-01-31T03:56:52.722Z,3.20
2023-01-31T03:59:22.867Z,2.53
2023-01-31T04:01:53.393Z,2.67
2023-01-31T04:04:24.148Z,2.63
2023-01-31T04:06:52.662Z,2.73
2023-01-31T04:09:20.933Z,2.87
2023-01-31T04:11:50.288Z,2.83
2023-01-31T04:14:17.411Z,4.17
2023-01-31T04:16:44.311Z,2.63
2023-01-31T04:19:11.285Z,2.27
2023-01-31T04:21:38.190Z,2.70
2023-01-31T04:24:07.258Z,2.57
2023-01-31T04:26:34.158Z,2.70
2023-01-31T04:29:01.115Z,3.03
2023-01-31T04:31:28.192Z,2.00
2023-01-31T04:33:55.981Z,2.10
2023-01-31T04:36:22.865Z,2.87
2023-01-31T04:38:49.746Z,2.83
2023-01-31T04:41:18.023Z,3.03
2023-01-31T04:43:44.879Z,2.77
2023-01-31T04:46:11.786Z,3.07
2023-01-31T04:48:40.365Z,2.13
2023-01-31T04:51:07.371Z,3.50
2023-01-31T04:53:34.253Z,3.37
2023-01-31T04:56:01.102Z,2.53
2023-01-31T04:58:29.454Z,2.63
2023-01-31T05:00:56.801Z,3.00
2023-01-31T05:03:23.770Z,3.30
2023-01-31T05:05:51.260Z,3.20
2023-01-31T05:08:18.185Z,2.67
2023-01-31T05:10:45.062Z,2.57
2023-01-31T05:13:12.039Z,1.90
2023-01-31T05:15:41.441Z,3.70
2023-01-31T05:18:08.493Z,2.50
2023-01-31T05:20:39.817Z,3.03
2023-01-31T05:23:07.486Z,2.43
2023-01-31T05:25:35.974Z,3.07
2023-01-31T05:28:03.415Z,2.93
2023-01-31T05:30:30.410Z,2.73
2023-01-31T05:32:58.671Z,3.33
2023-01-31T05:35:25.557Z,2.33
2023-01-31T05:37:53.557Z,3.57
2023-01-31T05:40:21.164Z,2.80
2023-01-31T05:42:53.991Z,2.50
2023-01-31T05:45:21.290Z,2.30
2023-01-31T05:47:48.888Z,2.33
2023-01-31T05:50:17.727Z,4.53
2023-01-31T05:52:49.584Z,3.17
2023-01-31T05:55:16.570Z,2.40
2023-01-31T05:57:43.437Z,2.90
2023-01-31T06:00:11.557Z,2.47
2023-01-31T06:02:38.459Z,2.33
2023-01-31T06:05:05.927Z,3.10
2023-01-31T06:07:34.179Z,2.60
2023-01-31T06:10:02.368Z,3.27
2023-01-31T06:12:29.236Z,2.63
2023-01-31T06:14:56.061Z,2.90
2023-01-31T06:17:27.631Z,2.30
2023-01-31T06:19:55.600Z,3.50
2023-01-31T06:22:22.428Z,2.27
2023-01-31T06:24:50.657Z,2.90
2023-01-31T06:27:17.447Z,3.00
2023-01-31T06:29:44.298Z,3.13
2023-01-31T06:32:11.229Z,3.43
2023-01-31T06:34:38.128Z,2.43
2023-01-31T06:37:04.989Z,3.37
2023-01-31T06:39:31.801Z,3.00
2023-01-31T06:42:00.142Z,2.80
2023-01-31T06:44:27.610Z,2.83
2023-01-31T06:46:54.823Z,2.73
2023-01-31T06:49:21.717Z,2.63
2023-01-31T06:51:48.557Z,2.73
2023-01-31T06:54:15.409Z,3.20
2023-01-31T06:56:42.323Z,2.80
2023-01-31T06:59:10.693Z,3.13
2023-01-31T07:01:37.744Z,3.70
2023-01-31T07:04:04.707Z,2.93
2023-01-31T07:06:31.612Z,3.30
2023-01-31T07:08:58.566Z,7.17
2023-01-31T07:11:25.456Z,3.67
2023-01-31T07:13:53.235Z,3.10
2023-01-31T07:16:23.725Z,3.40
2023-01-31T07:18:52.644Z,3.40
2023-01-31T07:21:19.553Z,3.50
2023-01-31T07:23:46.751Z,3.00
2023-01-31T07:26:16.965Z,2.70
2023-01-31T07:28:44.094Z,3.53
2023-01-31T07:31:13.439Z,2.97
2023-01-31T07:33:41.657Z,3.17
2023-01-31T07:36:13.442Z,2.93
2023-01-31T07:38:40.875Z,2.60
2023-01-31T07:41:09.445Z,3.20
2023-01-31T07:43:36.410Z,3.13
2023-01-31T07:46:06.226Z,3.00
2023-01-31T07:48:33.085Z,3.13
2023-01-31T07:51:02.643Z,3.20
2023-01-31T07:53:31.922Z,2.70
2023-01-31T07:56:06.813Z,3.03
2023-01-31T07:58:35.098Z,3.53
2023-01-31T08:01:21.739Z,3.77
2023-01-31T08:03:48.724Z,3.77
2023-01-31T08:06:17.437Z,2.93
2023-01-31T08:08:46.100Z,3.53
2023-01-31T08:11:13.130Z,3.47
2023-01-31T08:13:40.139Z,3.30
2023-01-31T08:16:09.402Z,4.00
2023-01-31T08:18:37.262Z,3.73
2023-01-31T08:21:05.211Z,3.50
2023-01-31T08:23:34.734Z,3.23
2023-01-31T08:26:03.309Z,3.53
2023-01-31T08:28:30.686Z,3.03
2023-01-31T08:31:08.308Z,3.77
2023-01-31T08:33:37.471Z,3.63
2023-01-31T08:36:12.200Z,3.80
2023-01-31T08:38:40.677Z,3.47
2023-01-31T08:41:09.283Z,3.83
2023-01-31T08:43:53.747Z,3.30
2023-01-31T08:46:22.317Z,3.80
2023-01-31T08:48:49.352Z,4.27
2023-01-31T08:51:16.428Z,5.03
2023-01-31T08:53:45.125Z,3.70
2023-01-31T08:56:13.627Z,3.90
2023-01-31T08:58:42.779Z,4.37
2023-01-31T09:01:11.901Z,4.07
2023-01-31T09:03:39.255Z,4.70
2023-01-31T09:06:08.846Z,4.80
2023-01-31T09:08:36.256Z,5.40
2023-01-31T09:11:04.855Z,5.27
2023-01-31T09:13:34.059Z,5.40
2023-01-31T09:16:03.543Z,6.57
2023-01-31T09:18:33.411Z,5.73
2023-01-31T09:21:04.792Z,6.93
2023-01-31T09:23:32.249Z,5.93
2023-01-31T09:26:00.780Z,6.57
2023-01-31T09:28:29.958Z,5.73
2023-01-31T09:31:03.954Z,6.23
2023-01-31T09:33:35.834Z,6.23
2023-01-31T09:36:04.925Z,6.47
2023-01-31T09:38:32.360Z,7.03
2023-01-31T09:41:01.854Z,6.57
2023-01-31T09:43:36.298Z,6.50
2023-01-31T09:46:06.748Z,6.97
2023-01-31T09:48:38.724Z,6.43
2023-01-31T09:51:06.322Z,6.53
2023-01-31T09:53:36.511Z,6.70
2023-01-31T09:56:17.183Z,7.03
2023-01-31T09:58:55.715Z,6.60
2023-01-31T10:01:26.890Z,6.77
2023-01-31T10:04:20.215Z,7.07
2023-01-31T10:06:54.235Z,7.20
2023-01-31T10:09:29.326Z,6.67
2023-01-31T10:12:01.245Z,7.10
2023-01-31T10:14:35.604Z,6.77
2023-01-31T10:17:07.744Z,6.93
2023-01-31T10:19:43.385Z,6.77
2023-01-31T10:22:15.417Z,5.57
2023-01-31T10:24:48.007Z,7.90
2023-01-31T10:27:19.246Z,5.93
2023-01-31T10:29:52.986Z,7.37
2023-01-31T10:32:26.651Z,6.70
2023-01-31T10:34:57.601Z,6.27
2023-01-31T10:37:32.595Z,6.43
2023-01-31T10:40:05.386Z,6.70
2023-01-31T10:42:35.144Z,6.13
2023-01-31T10:45:15.395Z,6.10
2023-01-31T10:47:48.933Z,7.10
2023-01-31T10:50:18.821Z,6.07
2023-01-31T10:52:59.662Z,6.47
2023-01-31T10:55:41.381Z,6.23
2023-01-31T10:58:13.546Z,7.70
2023-01-31T11:00:42.272Z,8.20
2023-01-31T11:03:12.059Z,6.97
2023-01-31T11:05:46.681Z,6.53
2023-01-31T11:08:27.943Z,7.47
2023-01-31T11:10:57.233Z,7.33
2023-01-31T11:13:24.879Z,7.03
2023-01-31T11:15:54.509Z,7.23
2023-01-31T11:18:30.525Z,7.23
2023-01-31T11:20:59.199Z,7.13
2023-01-31T11:23:29.467Z,6.67
2023-01-31T11:25:57.119Z,6.77
2023-01-31T11:28:27.713Z,7.37
2023-01-31T11:30:57.416Z,6.80
2023-01-31T11:33:44.275Z,5.90
2023-01-31T11:36:13.785Z,8.07
2023-01-31T11:38:41.060Z,6.47
2023-01-31T11:41:27.565Z,5.80
2023-01-31T11:44:08.609Z,7.57
2023-01-31T11:46:44.769Z,5.80
2023-01-31T11:49:14.134Z,6.20
2023-01-31T11:51:41.475Z,6.20
2023-01-31T11:54:14.757Z,5.73
2023-01-31T11:56:41.740Z,5.90
2023-01-31T11:59:16.165Z,6.00
2023-01-31T12:01:48.707Z,6.13
2023-01-31T12:04:20.015Z,4.63
2023-01-31T12:06:58.311Z,5.07
2023-01-31T12:09:28.406Z,5.37
2023-01-31T12:11:58.088Z,5.20
2023-01-31T12:14:36.945Z,5.47
2023-01-31T12:17:06.144Z,5.47
2023-01-31T12:19:46.839Z,5.27
2023-01-31T12:22:20.067Z,5.57
2023-01-31T12:24:56.603Z,5.33
2023-01-31T12:27:42.044Z,4.77
2023-01-31T12:30:25.029Z,5.27
2023-01-31T12:33:11.492Z,5.23
2023-01-31T12:36:06.909Z,5.00
2023-01-31T12:38:58.848Z,4.73
2023-01-31T12:41:33.476Z,4.93
2023-01-31T12:44:28.398Z,5.50
2023-01-31T12:47:17.204Z,5.53
2023-01-31T12:50:01.914Z,5.17
2023-01-31T12:52:38.533Z,5.50
2023-01-31T12:55:19.633Z,5.80
2023-01-31T12:57:54.859Z,5.97
2023-01-31T13:00:32.919Z,5.33
2023-01-31T13:03:45.013Z,5.47
2023-01-31T13:06:19.500Z,6.17
2023-01-31T13:09:06.890Z,6.07
2023-01-31T13:11:39.435Z,5.70
2023-01-31T13:14:13.372Z,5.90
2023-01-31T13:16:43.785Z,6.77
2023-01-31T13:19:18.325Z,6.53
2023-01-31T13:21:52.124Z,6.30
2023-01-31T13:24:24.118Z,5.80
2023-01-31T13:26:56.313Z,6.30
2023-01-31T13:29:28.869Z,6.70
2023-01-31T13:32:01.108Z,6.20
2023-01-31T13:34:35.952Z,5.83
2023-01-31T13:37:10.250Z,5.90
2023-01-31T13:39:41.052Z,5.87
2023-01-31T13:42:14.001Z,6.13
2023-01-31T13:44:41.515Z,6.50
2023-01-31T13:47:16.736Z,6.00
2023-01-31T13:49:50.531Z,6.37
2023-01-31T13:52:24.409Z,6.13
2023-01-31T13:54:54.396Z,6.33
2023-01-31T13:57:25.310Z,6.10
2023-01-31T13:59:55.410Z,5.63
2023-01-31T14:02:23.118Z,5.60
2023-01-31T14:04:51.100Z,5.50
2023-01-31T14:07:24.347Z,5.13
2023-01-31T14:10:37.067Z,5.87
2023-01-31T14:13:42.124Z,6.03
2023-01-31T14:16:42.296Z,6.03
2023-01-31T14:19:57.001Z,5.43
2023-01-31T14:22:28.409Z,5.60
2023-01-31T14:24:59.875Z,5.20
2023-01-31T14:27:30.087Z,5.90
2023-01-31T14:30:01.363Z,5.97
2023-01-31T14:32:32.821Z,5.73
2023-01-31T14:35:09.485Z,5.50
2023-01-31T14:37:50.778Z,5.60
2023-01-31T14:40:27.040Z,5.13
2023-01-31T14:43:22.242Z,7.90
2023-01-31T14:46:14.844Z,6.33
2023-01-31T14:49:02.791Z,6.33
2023-01-31T14:51:41.008Z,6.50
2023-01-31T14:54:22.893Z,6.97
2023-01-31T14:56:59.005Z,6.57
2023-01-31T14:59:33.545Z,6.87
2023-01-31T15:02:02.974Z,6.57
2023-01-31T15:04:30.164Z,7.13
2023-01-31T15:06:57.877Z,6.90
2023-01-31T15:09:37.790Z,7.87
2023-01-31T15:12:07.889Z,7.70
2023-01-31T15:14:37.964Z,8.07
2023-01-31T15:17:33.055Z,7.60
2023-01-31T15:20:14.909Z,7.63
2023-01-31T15:22:44.119Z,7.97
2023-01-31T15:25:24.635Z,7.67
2023-01-31T15:27:54.404Z,7.63
2023-01-31T15:30:23.392Z,8.40
2023-01-31T15:32:55.468Z,7.73
2023-01-31T15:35:25.560Z,7.60
2023-01-31T15:37:58.222Z,7.37
2023-01-31T15:40:28.626Z,6.80
2023-01-31T15:43:15.499Z,7.40
2023-01-31T15:45:42.755Z,7.80
2023-01-31T15:48:15.208Z,6.93
2023-01-31T15:50:50.640Z,8.23
2023-01-31T15:53:18.765Z,7.73
2023-01-31T15:55:48.763Z,7.33
2023-01-31T15:58:19.459Z,7.53
2023-01-31T16:00:50.618Z,7.50
2023-01-31T16:03:22.199Z,7.53
2023-01-31T16:05:52.008Z,6.77
2023-01-31T16:08:25.812Z,7.17
2023-01-31T16:10:54.205Z,7.57
2023-01-31T16:13:22.405Z,6.97
2023-01-31T16:15:50.003Z,6.63
2023-01-31T16:18:17.790Z,7.00
2023-01-31T16:20:46.693Z,6.90
2023-01-31T16:23:26.094Z,6.03
2023-01-31T16:25:59.750Z,6.47
2023-01-31T16:28:29.812Z,6.00
2023-01-31T16:31:06.424Z,5.33
2023-01-31T16:33:34.941Z,6.90
2023-01-31T16:36:13.631Z,5.60
2023-01-31T16:38:43.260Z,5.83
2023-01-31T16:41:13.013Z,6.20
2023-01-31T16:43:41.979Z,6.20
2023-01-31T16:46:36.602Z,5.90
2023-01-31T16:49:05.379Z,5.53
2023-01-31T16:51:42.859Z,5.87
2023-01-31T16:54:19.528Z,5.63
2023-01-31T16:57:05.890Z,5.60
2023-01-31T16:59:44.370Z,6.23
2023-01-31T17:02:16.636Z,5.53
2023-01-31T17:04:45.709Z,5.90
2023-01-31T17:07:18.644Z,6.13
2023-01-31T17:09:47.247Z,5.60
2023-01-31T17:12:21.738Z,5.93
2023-01-31T17:14:48.934Z,5.33
2023-01-31T17:17:20.538Z,5.63
2023-01-31T17:19:48.772Z,4.90
2023-01-31T17:22:15.774Z,5.20
2023-01-31T17:24:42.721Z,4.97
2023-01-31T17:27:14.527Z,5.30
2023-01-31T17:29:43.999Z,5.30
2023-01-31T17:32:13.087Z,5.23
2023-01-31T17:34:40.617Z,5.43
2023-01-31T17:37:07.703Z,4.97
2023-01-31T17:39:34.992Z,4.83
2023-01-31T17:42:02.183Z,4.07
2023-01-31T17:44:29.135Z,5.20
2023-01-31T17:46:57.431Z,5.13
2023-01-31T17:49:24.357Z,5.20
2023-01-31T17:51:51.313Z,4.73
2023-01-31T17:54:18.977Z,5.60
2023-01-31T17:56:47.303Z,4.57
2023-01-31T17:59:25.383Z,4.60
2023-01-31T18:01:53.685Z,5.07
2023-01-31T18:04:22.139Z,4.10
2023-01-31T18:06:48.966Z,4.33
2023-01-31T18:09:16.967Z,3.67
2023-01-31T18:11:44.477Z,4.27
2023-01-31T18:14:11.890Z,3.90
2023-01-31T18:16:38.877Z,3.60
2023-01-31T18:19:05.901Z,2.97
2023-01-31T18:21:37.066Z,3.57
2023-01-31T18:24:06.714Z,3.80
2023-01-31T18:26:33.708Z,3.70
2023-01-31T18:29:00.597Z,4.27
2023-01-31T18:31:27.663Z,3.70
2023-01-31T18:33:54.686Z,3.27
2023-01-31T18:36:22.380Z,3.47
2023-01-31T18:38:50.793Z,3.20
2023-01-31T18:41:20.494Z,2.50
2023-01-31T18:43:48.430Z,3.17
2023-01-31T18:46:17.018Z,2.87
2023-01-31T18:48:44.121Z,3.50
2023-01-31T18:51:12.682Z,3.07
2023-01-31T18:53:41.365Z,2.90
2023-01-31T18:56:12.699Z,2.97
2023-01-31T18:58:40.993Z,2.97
2023-01-31T19:01:09.748Z,2.67
2023-01-31T19:03:41.528Z,2.60
2023-01-31T19:06:10.980Z,2.80
2023-01-31T19:08:38.401Z,3.23
2023-01-31T19:11:07.875Z,4.90
2023-01-31T19:13:36.490Z,3.20
2023-01-31T19:16:05.737Z,3.57
2023-01-31T19:18:32.946Z,3.07
2023-01-31T19:21:00.171Z,3.50
2023-01-31T19:23:27.352Z,2.80
2023-01-31T19:25:54.442Z,3.90
2023-01-31T19:28:23.210Z,3.20
2023-01-31T19:30:52.779Z,2.90
2023-01-31T19:33:20.016Z,2.73
2023-01-31T19:35:47.174Z,3.03
2023-01-31T19:38:14.512Z,4.37
2023-01-31T19:40:42.865Z,2.97
2023-01-31T19:43:09.861Z,3.40
2023-01-31T19:45:36.735Z,3.33
2023-01-31T19:48:05.515Z,3.10
2023-01-31T19:50:32.616Z,3.17
2023-01-31T19:52:59.756Z,3.13
2023-01-31T19:55:26.614Z,3.20
2023-01-31T19:57:53.604Z,3.37
2023-01-31T20:00:21.065Z,4.27
2023-01-31T20:02:48.015Z,3.17
2023-01-31T20:05:16.340Z,3.10
2023-01-31T20:07:43.455Z,3.20
2023-01-31T20:10:12.268Z,4.33
2023-01-31T20:12:40.254Z,3.43
2023-01-31T20:15:08.885Z,4.10
2023-01-31T20:17:35.953Z,2.77
2023-01-31T20:20:03.962Z,3.57
2023-01-31T20:22:33.978Z,2.70
2023-01-31T20:25:01.310Z,2.40
2023-01-31T20:27:33.663Z,2.73
2023-01-31T20:30:01.125Z,2.60
2023-01-31T20:32:30.344Z,3.23
2023-01-31T20:35:01.469Z,2.90
2023-01-31T20:37:28.777Z,3.37
2023-01-31T20:39:57.036Z,2.50
2023-01-31T20:42:25.669Z,3.27
2023-01-31T20:44:53.199Z,2.40
2023-01-31T20:47:20.054Z,2.20
2023-01-31T20:49:46.991Z,2.50
2023-01-31T20:52:13.811Z,2.43
2023-01-31T20:54:40.771Z,2.50
2023-01-31T20:57:08.953Z,2.57
2023-01-31T20:59:35.761Z,2.70
2023-01-31T21:02:02.633Z,2.40
2023-01-31T21:04:29.475Z,2.43
2023-01-31T21:06:56.357Z,3.07
2023-01-31T21:09:23.387Z,2.90
2023-01-31T21:11:50.284Z,3.80
2023-01-31T21:14:18.496Z,3.10
2023-01-31T21:16:45.345Z,2.73
2023-01-31T21:19:12.173Z,2.53
2023-01-31T21:21:39.434Z,3.53
2023-01-31T21:24:08.308Z,2.47
2023-01-31T21:26:35.492Z,2.83
2023-01-31T21:29:02.844Z,2.97
2023-01-31T21:31:31.778Z,2.73
2023-01-31T21:34:05.715Z,2.80
2023-01-31T21:36:37.011Z,3.67
2023-01-31T21:39:04.526Z,3.93
2023-01-31T21:41:50.148Z,3.03
2023-01-31T21:44:17.656Z,3.10
2023-01-31T21:46:46.763Z,3.10
2023-01-31T21:49:14.748Z,3.40
2023-01-31T21:51:41.713Z,3.10
2023-01-31T21:54:09.105Z,3.50
2023-01-31T21:56:35.984Z,3.40
2023-01-31T21:59:03.149Z,3.23
2023-01-31T22:01:32.019Z,4.22
2023-01-31T22:04:01.070Z,3.47
2023-01-31T22:06:31.705Z,4.00
2023-01-31T22:09:00.685Z,3.43
2023-01-31T22:11:33.318Z,3.50
2023-01-31T22:14:01.813Z,3.33
2023-01-31T22:16:28.879Z,3.83
2023-01-31T22:18:55.915Z,3.73
2023-01-31T22:21:26.336Z,3.57
2023-01-31T22:23:54.933Z,3.17
2023-01-31T22:26:24.178Z,3.60
2023-01-31T22:28:52.085Z,3.93
2023-01-31T22:31:19.217Z,3.63
2023-01-31T22:33:46.517Z,3.43
2023-01-31T22:36:14.994Z,3.20
2023-01-31T22:38:44.155Z,3.60
2023-01-31T22:41:12.417Z,3.53
2023-01-31T22:43:41.150Z,3.47
2023-01-31T22:46:11.051Z,3.00
2023-01-31T22:48:38.086Z,3.33
2023-01-31T22:51:07.614Z,3.33
2023-01-31T22:53:36.375Z,3.73
2023-01-31T22:56:06.359Z,4.07
2023-01-31T22:58:33.946Z,3.43
2023-01-31T23:01:01.867Z,2.50
2023-01-31T23:03:29.354Z,3.50
2023-01-31T23:05:56.344Z,3.37
2023-01-31T23:08:23.221Z,2.73
2023-01-31T23:10:50.146Z,3.20
2023-01-31T23:13:18.345Z,3.17
2023-01-31T23:15:45.222Z,3.00
2023-01-31T23:18:15.734Z,2.83
2023-01-31T23:20:42.622Z,2.90
2023-01-31T23:23:09.432Z,2.97
2023-01-31T23:25:36.364Z,2.87
2023-01-31T23:28:03.335Z,2.83
2023-01-31T23:30:31.643Z,2.87
2023-01-31T23:32:58.524Z,3.17
2023-01-31T23:35:25.404Z,3.03
2023-01-31T23:37:52.402Z,2.97
2023-01-31T23:40:21.214Z,2.97
2023-01-31T23:42:48.151Z,3.17
2023-01-31T23:45:15.013Z,3.67
2023-01-31T23:47:44.587Z,3.10
2023-01-31T23:50:11.945Z,3.40
2023-01-31T23:52:38.779Z,3.63
2023-01-31T23:55:07.049Z,3.43
2023-01-31T23:57:34.063Z,3.73
